Time;durP1;ratioP1;P1;durP2;ratioP2;P2;SDS_P1;SDS_P2;PMS_P1;PMS_P2;Temp;Humidity;BMP_temperature;BMP_pressure;BME280_temperature;BME280_humidity;BME280_pressure;Samples;Min_cycle;Max_cycle;Signal;HPM_P1;HPM_P2
2023/03/16 00:00:46;;;;;;;0.60;0.60;;;-4.40;99.90;;;;;;5096317;28;20205;-70
2023/03/16 00:03:19;;;;;;;0.80;0.80;;;-4.50;99.90;;;;;;5096160;28;20270;-71
2023/03/16 00:05:49;;;;;;;0.80;0.80;;;-4.70;99.90;;;;;;5096385;28;20306;-71
2023/03/16 00:08:16;;;;;;;0.77;0.77;;;-4.80;99.90;;;;;;5077994;28;20675;-70
2023/03/16 00:10:45;;;;;;;0.80;0.80;;;-4.90;99.90;;;;;;5077444;28;20219;-71
2023/03/16 00:13:15;;;;;;;0.77;0.77;;;-5.00;99.90;;;;;;5077596;28;20203;-71
2023/03/16 00:15:52;;;;;;;0.73;0.73;;;-5.20;99.90;;;;;;5077714;28;20266;-71
2023/03/16 00:18:18;;;;;;;0.83;0.83;;;-5.30;99.90;;;;;;5096111;28;20183;-70
2023/03/16 00:20:43;;;;;;;0.80;0.80;;;-5.30;99.90;;;;;;5096140;28;20196;-71
2023/03/16 00:23:09;;;;;;;0.80;0.80;;;-5.40;99.90;;;;;;5095726;28;20222;-70
2023/03/16 00:25:38;;;;;;;0.80;0.80;;;-5.40;99.90;;;;;;5077761;28;20677;-70
2023/03/16 00:28:03;;;;;;;0.80;0.80;;;-5.40;99.90;;;;;;5095991;28;20192;-70
2023/03/16 00:30:31;;;;;;;0.80;0.80;;;-5.40;99.90;;;;;;5077517;28;20241;-70
2023/03/16 00:32:58;;;;;;;0.80;0.80;;;-5.40;99.90;;;;;;5077661;28;20719;-70
2023/03/16 00:35:24;;;;;;;0.82;0.82;;;-5.40;99.90;;;;;;5076611;28;20600;-71
2023/03/16 00:37:49;;;;;;;0.70;0.70;;;-5.30;99.90;;;;;;5095194;28;20223;-70
2023/03/16 00:40:16;;;;;;;0.70;0.70;;;-5.30;99.90;;;;;;5095550;28;20224;-70
2023/03/16 00:42:42;;;;;;;0.80;0.80;;;-5.30;99.90;;;;;;5077384;28;20196;-70
2023/03/16 00:45:08;;;;;;;0.80;0.80;;;-5.30;99.90;;;;;;5095647;28;20196;-70
2023/03/16 00:47:34;;;;;;;0.80;0.80;;;-5.30;99.90;;;;;;5095336;28;20192;-70
2023/03/16 00:50:01;;;;;;;0.70;0.70;;;-5.40;99.90;;;;;;5095440;28;20252;-70
2023/03/16 00:52:29;;;;;;;0.73;0.73;;;-5.50;99.90;;;;;;5094999;28;20563;-70
2023/03/16 00:54:56;;;;;;;0.70;0.70;;;-5.50;99.90;;;;;;5094670;28;20208;-70
2023/03/16 00:57:24;;;;;;;0.80;0.80;;;-5.60;99.90;;;;;;5095183;28;20258;-70
2023/03/16 00:59:50;;;;;;;0.70;0.70;;;-5.70;99.90;;;;;;5077140;28;20199;-70
2023/03/16 01:02:18;;;;;;;0.70;0.70;;;-5.70;99.90;;;;;;5095211;28;20258;-70
2023/03/16 01:04:43;;;;;;;0.67;0.67;;;-5.80;99.90;;;;;;5076789;28;20666;-70
2023/03/16 01:07:12;;;;;;;0.83;0.83;;;-5.90;99.90;;;;;;5076748;28;20284;-70
2023/03/16 01:09:39;;;;;;;0.90;0.90;;;-6.00;99.90;;;;;;5076539;28;20203;-71
2023/03/16 01:12:09;;;;;;;0.60;0.60;;;-6.00;99.90;;;;;;5076986;28;20569;-71
2023/03/16 01:14:35;;;;;;;0.90;0.90;;;-6.00;99.90;;;;;;5076578;28;20208;-70
2023/03/16 01:17:07;;;;;;;0.70;0.70;;;-6.00;99.90;;;;;;5094798;28;20185;-70
2023/03/16 01:19:34;;;;;;;0.80;0.80;;;-6.00;99.90;;;;;;5075663;28;20196;-70
2023/03/16 01:22:01;;;;;;;0.60;0.60;;;-6.00;99.90;;;;;;5076607;28;20192;-70
2023/03/16 01:24:27;;;;;;;0.80;0.80;;;-6.10;99.90;;;;;;5072879;28;20201;-70
2023/03/16 01:26:53;;;;;;;0.87;0.87;;;-6.20;99.90;;;;;;5069601;28;20196;-70
2023/03/16 01:29:19;;;;;;;0.70;0.70;;;-6.20;99.90;;;;;;5094530;28;20202;-70
2023/03/16 01:31:45;;;;;;;0.80;0.80;;;-6.20;99.90;;;;;;5094789;28;20192;-70
2023/03/16 01:34:17;;;;;;;0.80;0.80;;;-6.10;99.90;;;;;;5076294;28;20722;-70
2023/03/16 01:36:45;;;;;;;0.73;0.73;;;-6.10;99.90;;;;;;5076128;28;20188;-70
2023/03/16 01:39:11;;;;;;;0.70;0.70;;;-6.10;99.90;;;;;;5076233;28;20192;-70
2023/03/16 01:41:38;;;;;;;0.77;0.77;;;-6.10;99.90;;;;;;5076118;28;20693;-70
2023/03/16 01:44:04;;;;;;;0.90;0.90;;;-5.90;99.90;;;;;;5094172;28;20200;-70
2023/03/16 01:46:30;;;;;;;0.77;0.77;;;-5.80;99.90;;;;;;5094172;28;20188;-69
2023/03/16 01:49:05;;;;;;;0.70;0.70;;;-5.70;99.90;;;;;;5094047;28;20751;-70
2023/03/16 01:51:51;;;;;;;0.80;0.80;;;-5.70;99.90;;;;;;5093935;28;20198;-70
2023/03/16 01:54:36;;;;;;;0.73;0.73;;;-5.70;99.90;;;;;;5093987;28;20208;-70
2023/03/16 01:57:10;;;;;;;0.80;0.80;;;-5.70;99.90;;;;;;5076039;28;20192;-70
2023/03/16 01:59:47;;;;;;;0.80;0.80;;;-5.70;99.90;;;;;;5093890;28;20192;-70
2023/03/16 02:02:16;;;;;;;0.70;0.70;;;-5.70;99.90;;;;;;5094317;28;20199;-70
2023/03/16 02:04:42;;;;;;;0.80;0.80;;;-5.70;99.90;;;;;;5097294;22;20235;-73
2023/03/16 02:07:11;;;;;;;0.80;0.80;;;-5.60;99.90;;;;;;5074139;28;20197;-73
2023/03/16 02:09:44;;;;;;;0.80;0.80;;;-5.60;99.90;;;;;;5072851;28;20189;-74
2023/03/16 02:12:17;;;;;;;0.80;0.80;;;-5.70;99.90;;;;;;5055103;28;20258;-74
2023/03/16 02:14:48;;;;;;;0.80;0.80;;;-5.60;99.90;;;;;;5054521;28;20216;-74
2023/03/16 02:17:17;;;;;;;0.80;0.80;;;-5.70;99.90;;;;;;5038634;28;20197;-74
2023/03/16 02:20:08;;;;;;;0.80;0.80;;;-5.70;99.90;;;;;;5072755;28;20330;-72
2023/03/16 02:22:38;;;;;;;1.00;1.00;;;-5.70;99.90;;;;;;5054730;28;20225;-73
2023/03/16 02:25:07;;;;;;;0.70;0.70;;;-5.70;99.90;;;;;;5051121;28;20745;-72
2023/03/16 02:27:45;;;;;;;0.70;0.70;;;-5.60;99.90;;;;;;5052509;28;20197;-73
2023/03/16 02:30:14;;;;;;;0.70;0.70;;;-5.60;99.90;;;;;;5052701;28;20204;-72
2023/03/16 02:32:46;;;;;;;0.80;0.80;;;-5.60;99.90;;;;;;5037380;28;20228;-73
2023/03/16 02:35:11;;;;;;;0.80;0.80;;;-5.60;99.90;;;;;;5071898;28;20695;-74
2023/03/16 02:37:38;;;;;;;0.90;0.90;;;-5.60;99.90;;;;;;5054457;28;20200;-72
2023/03/16 02:40:28;;;;;;;0.80;0.80;;;-5.60;99.90;;;;;;5054359;28;20189;-72
2023/03/16 02:43:19;;;;;;;0.80;0.80;;;-5.60;99.90;;;;;;5054725;28;20204;-74
2023/03/16 02:45:50;;;;;;;0.70;0.70;;;-5.50;99.90;;;;;;5054308;28;20216;-74
2023/03/16 02:48:34;;;;;;;0.90;0.90;;;-5.50;99.90;;;;;;5072509;28;20189;-73
2023/03/16 02:51:00;;;;;;;0.80;0.80;;;-5.60;99.90;;;;;;5072248;28;20207;-73
2023/03/16 02:53:26;;;;;;;1.30;1.20;;;-5.60;99.90;;;;;;5054254;28;20291;-72
2023/03/16 02:55:51;;;;;;;0.80;0.80;;;-5.60;99.90;;;;;;5072443;28;20189;-72
2023/03/16 02:58:17;;;;;;;0.73;0.73;;;-5.60;99.90;;;;;;5053981;28;20204;-73
2023/03/16 03:00:44;;;;;;;0.70;0.70;;;-5.70;99.90;;;;;;5057673;28;20345;-73
2023/03/16 03:03:11;;;;;;;0.80;0.80;;;-5.80;99.90;;;;;;5056964;28;20200;-73
2023/03/16 03:05:37;;;;;;;0.80;0.80;;;-6.00;99.90;;;;;;5071290;28;20228;-71
2023/03/16 03:08:09;;;;;;;0.90;0.90;;;-6.20;99.90;;;;;;5054045;28;20200;-73
2023/03/16 03:10:35;;;;;;;0.70;0.70;;;-6.30;99.90;;;;;;5054052;28;20675;-73
2023/03/16 03:13:00;;;;;;;1.85;1.75;;;-6.40;99.90;;;;;;5054261;28;20204;-73
2023/03/16 03:15:29;;;;;;;0.73;0.73;;;-6.40;99.90;;;;;;5054047;28;20220;-73
2023/03/16 03:18:00;;;;;;;0.90;0.90;;;-6.30;99.90;;;;;;5072258;28;20201;-73
2023/03/16 03:20:29;;;;;;;0.80;0.80;;;-6.20;99.90;;;;;;5071894;28;20582;-72
2023/03/16 03:23:01;;;;;;;0.87;0.87;;;-6.10;99.90;;;;;;5072212;28;20208;-72
2023/03/16 03:25:33;;;;;;;0.90;0.90;;;-6.10;99.90;;;;;;5051963;28;20616;-72
2023/03/16 03:28:25;;;;;;;0.90;0.90;;;-6.10;99.90;;;;;;5034150;28;20205;-74
2023/03/16 03:30:51;;;;;;;0.80;0.80;;;-6.10;99.90;;;;;;5034171;28;20631;-72
2023/03/16 03:33:17;;;;;;;0.83;0.83;;;-6.20;99.90;;;;;;5041836;28;20232;-72
2023/03/16 03:35:43;;;;;;;0.83;0.83;;;-6.30;99.90;;;;;;5053797;28;20647;-73
2023/03/16 03:38:10;;;;;;;0.90;0.90;;;-6.50;99.90;;;;;;5054019;28;20203;-73
2023/03/16 03:40:36;;;;;;;0.80;0.80;;;-6.60;99.90;;;;;;5071589;28;20207;-72
2023/03/16 03:43:05;;;;;;;0.80;0.80;;;-6.70;99.90;;;;;;5053926;28;20226;-71
2023/03/16 03:45:31;;;;;;;0.77;0.77;;;-6.80;99.90;;;;;;5054104;28;20197;-72
2023/03/16 03:47:57;;;;;;;0.80;0.80;;;-6.90;99.90;;;;;;5072008;28;20204;-73
2023/03/16 03:50:26;;;;;;;0.70;0.70;;;-7.00;99.90;;;;;;5071904;28;20207;-72
2023/03/16 03:52:51;;;;;;;0.80;0.80;;;-7.10;99.90;;;;;;5053909;28;20550;-73
2023/03/16 03:55:18;;;;;;;0.90;0.90;;;-7.20;99.90;;;;;;5071784;28;20219;-73
2023/03/16 03:57:47;;;;;;;0.80;0.80;;;-7.20;99.90;;;;;;5053921;28;20197;-72
2023/03/16 04:00:19;;;;;;;0.80;0.80;;;-7.20;99.90;;;;;;5053848;28;20724;-72
2023/03/16 04:02:45;;;;;;;0.80;0.80;;;-7.20;99.90;;;;;;5055506;28;20265;-72
2023/03/16 04:05:17;;;;;;;0.90;0.90;;;-7.20;99.90;;;;;;5091529;28;20239;-72
2023/03/16 04:07:46;;;;;;;0.80;0.80;;;-7.20;99.90;;;;;;5091870;28;20655;-74
2023/03/16 04:10:14;;;;;;;0.90;0.90;;;-7.30;99.90;;;;;;5092704;28;20321;-73
2023/03/16 04:12:40;;;;;;;1.00;1.00;;;-7.30;99.90;;;;;;5095544;28;20196;-74
2023/03/16 04:15:07;;;;;;;0.80;0.80;;;-7.40;99.90;;;;;;5067122;28;20683;-72
2023/03/16 04:17:33;;;;;;;0.90;0.90;;;-7.40;99.90;;;;;;5074549;28;20211;-72
2023/03/16 04:20:04;;;;;;;0.80;0.80;;;-7.40;99.90;;;;;;5057214;28;20663;-73
2023/03/16 04:22:42;;;;;;;0.80;0.80;;;-7.50;99.90;;;;;;5056953;28;20193;-73
2023/03/16 04:25:17;;;;;;;0.90;0.90;;;-7.50;99.90;;;;;;5053564;28;20263;-73
2023/03/16 04:27:43;;;;;;;0.97;0.97;;;-7.50;99.90;;;;;;5054929;28;20192;-73
2023/03/16 04:30:13;;;;;;;0.90;0.90;;;-7.50;99.90;;;;;;5054958;28;20197;-74
2023/03/16 04:32:39;;;;;;;0.90;0.90;;;-7.60;99.90;;;;;;5056619;28;20212;-73
2023/03/16 04:35:09;;;;;;;0.80;0.80;;;-7.60;99.90;;;;;;5074783;28;20226;-72
2023/03/16 04:37:37;;;;;;;0.90;0.90;;;-7.60;99.90;;;;;;5074655;28;20196;-72
2023/03/16 04:40:18;;;;;;;0.90;0.90;;;-7.60;99.90;;;;;;5056703;28;20211;-72
2023/03/16 04:42:45;;;;;;;0.90;0.90;;;-7.60;99.90;;;;;;5057058;28;20283;-72
2023/03/16 04:45:12;;;;;;;1.40;1.30;;;-7.70;99.90;;;;;;5074648;28;20559;-72
2023/03/16 04:47:39;;;;;;;0.90;0.90;;;-7.70;99.90;;;;;;5056462;28;20204;-72
2023/03/16 04:50:08;;;;;;;0.90;0.90;;;-7.70;99.90;;;;;;5074525;28;20278;-73
2023/03/16 04:52:34;;;;;;;0.80;0.80;;;-7.70;99.90;;;;;;5056381;28;20565;-73
2023/03/16 04:54:59;;;;;;;0.90;0.90;;;-7.70;99.90;;;;;;5074096;28;20217;-73
2023/03/16 04:57:31;;;;;;;0.90;0.90;;;-7.60;99.90;;;;;;5074366;28;20228;-73
2023/03/16 04:59:56;;;;;;;0.90;0.90;;;-7.60;99.90;;;;;;5056524;28;20208;-73
2023/03/16 05:02:23;;;;;;;0.90;0.90;;;-7.60;99.90;;;;;;5074068;28;20192;-73
2023/03/16 05:04:51;;;;;;;0.77;0.77;;;-7.60;99.90;;;;;;5074008;28;20748;-73
2023/03/16 05:07:17;;;;;;;0.80;0.80;;;-7.60;99.90;;;;;;5074283;28;20631;-73
2023/03/16 05:09:43;;;;;;;0.80;0.80;;;-7.60;99.90;;;;;;5056157;28;20232;-73
2023/03/16 05:12:09;;;;;;;0.80;0.80;;;-7.70;99.90;;;;;;5056194;28;20239;-74
2023/03/16 05:14:35;;;;;;;2.10;1.57;;;-7.70;99.90;;;;;;5073757;28;20653;-72
2023/03/16 05:17:02;;;;;;;0.87;0.87;;;-7.70;99.90;;;;;;5055976;28;20219;-73
2023/03/16 05:19:29;;;;;;;1.00;1.00;;;-7.70;99.90;;;;;;5073734;28;20262;-73
2023/03/16 05:21:55;;;;;;;0.80;0.80;;;-7.60;99.90;;;;;;5055415;28;20201;-73
2023/03/16 05:24:23;;;;;;;0.77;0.77;;;-7.60;99.90;;;;;;5052267;28;20205;-73
2023/03/16 05:26:48;;;;;;;0.80;0.80;;;-7.60;99.90;;;;;;5053912;28;20726;-73
2023/03/16 05:29:17;;;;;;;0.80;0.80;;;-7.60;99.90;;;;;;5055718;28;20204;-73
2023/03/16 05:31:46;;;;;;;0.90;0.90;;;-7.70;99.90;;;;;;5073776;28;20205;-73
2023/03/16 05:34:12;;;;;;;0.83;0.83;;;-7.60;99.90;;;;;;5073541;28;20667;-73
2023/03/16 05:36:38;;;;;;;0.90;0.90;;;-7.60;99.90;;;;;;5055423;28;20205;-72
2023/03/16 05:39:07;;;;;;;0.90;0.90;;;-7.60;99.90;;;;;;5056289;28;20617;-73
2023/03/16 05:41:33;;;;;;;0.93;0.93;;;-7.50;99.90;;;;;;5073497;28;20655;-76
2023/03/16 05:44:10;;;;;;;0.90;0.90;;;-7.50;99.90;;;;;;5056282;28;20667;-76
2023/03/16 05:46:44;;;;;;;0.80;0.80;;;-7.50;99.90;;;;;;5073501;28;20227;-76
2023/03/16 05:49:11;;;;;;;0.90;0.90;;;-7.40;99.90;;;;;;5055839;28;20235;-77
2023/03/16 05:51:37;;;;;;;1.00;1.00;;;-7.20;99.90;;;;;;5053745;28;20295;-75
2023/03/16 05:54:03;;;;;;;0.80;0.80;;;-7.10;99.90;;;;;;5073140;28;20304;-75
2023/03/16 05:56:33;;;;;;;0.80;0.80;;;-6.90;99.90;;;;;;5072966;28;20655;-76
2023/03/16 05:58:59;;;;;;;0.80;0.80;;;-6.80;99.90;;;;;;5055041;28;20205;-76
2023/03/16 06:01:28;;;;;;;0.90;0.90;;;-6.60;99.90;;;;;;5073206;28;20193;-77
2023/03/16 06:04:14;;;;;;;0.90;0.90;;;-6.60;99.90;;;;;;5072535;28;20234;-76
2023/03/16 06:06:52;;;;;;;0.70;0.70;;;-6.60;99.90;;;;;;5073333;28;20216;-76
2023/03/16 06:09:18;;;;;;;0.80;0.80;;;-6.50;99.90;;;;;;5055205;28;20204;-76
2023/03/16 06:15:11;;;;;;;0.80;0.80;;;-6.50;99.90;;;;;;5046488;28;20733;-76
2023/03/16 06:17:41;;;;;;;0.90;0.90;;;-6.30;99.90;;;;;;5072945;28;20193;-75
2023/03/16 06:20:10;;;;;;;0.90;0.90;;;-6.20;99.90;;;;;;5073198;28;20192;-76
2023/03/16 06:23:03;;;;;;;0.80;0.80;;;-6.00;99.90;;;;;;5055236;28;20200;-76
2023/03/16 06:25:34;;;;;;;0.90;0.90;;;-6.00;99.90;;;;;;5060591;28;20243;-75
2023/03/16 06:28:03;;;;;;;0.80;0.80;;;-5.90;99.90;;;;;;5073172;28;20209;-76
2023/03/16 06:30:29;;;;;;;0.80;0.80;;;-5.90;99.90;;;;;;5072637;28;20764;-75
2023/03/16 06:32:54;;;;;;;0.90;0.90;;;-5.90;99.90;;;;;;5055119;28;20205;-76
2023/03/16 06:35:29;;;;;;;0.90;0.90;;;-5.90;99.90;;;;;;5072052;28;20266;-75
2023/03/16 06:38:10;;;;;;;0.80;0.80;;;-5.80;99.90;;;;;;5055106;28;20192;-75
2023/03/16 06:40:36;;;;;;;0.90;0.90;;;-5.70;99.90;;;;;;5054719;28;20284;-76
2023/03/16 06:43:25;;;;;;;0.80;0.80;;;-5.70;99.90;;;;;;5054948;28;20296;-75
2023/03/16 06:45:52;;;;;;;0.80;0.80;;;-5.50;99.90;;;;;;5059575;28;20278;-76
2023/03/16 06:48:20;;;;;;;0.90;0.90;;;-5.40;99.90;;;;;;5072330;28;20267;-77
2023/03/16 06:50:46;;;;;;;0.90;0.90;;;-5.30;99.90;;;;;;5072519;28;20219;-77
2023/03/16 06:53:12;;;;;;;0.80;0.80;;;-5.20;99.90;;;;;;5054748;28;20667;-76
2023/03/16 06:55:44;;;;;;;1.00;1.00;;;-5.10;99.90;;;;;;5054364;28;20216;-75
2023/03/16 06:58:13;;;;;;;3.33;2.23;;;-4.90;99.90;;;;;;5072463;28;20610;-74
2023/03/16 07:00:44;;;;;;;0.80;0.80;;;-4.80;99.90;;;;;;5072336;28;20307;-76
2023/03/16 07:03:10;;;;;;;0.80;0.80;;;-4.70;99.90;;;;;;5072853;28;20753;-75
2023/03/16 07:05:36;;;;;;;0.70;0.70;;;-4.50;99.90;;;;;;5050962;28;20237;-75
2023/03/16 07:08:09;;;;;;;0.90;0.90;;;-4.40;99.90;;;;;;5052858;28;20224;-74
2023/03/16 07:10:34;;;;;;;0.85;0.85;;;-4.20;99.90;;;;;;5052638;28;20220;-76
2023/03/16 07:13:12;;;;;;;0.65;0.65;;;-4.10;99.90;;;;;;5051473;28;20201;-75
2023/03/16 07:15:38;;;;;;;0.63;0.63;;;-3.90;99.90;;;;;;5052563;28;20303;-76
2023/03/16 07:18:07;;;;;;;0.70;0.70;;;-3.70;99.90;;;;;;5051291;28;20228;-79
2023/03/16 07:20:34;;;;;;;0.63;0.63;;;-3.50;99.90;;;;;;5047326;28;20569;-77
2023/03/16 07:22:59;;;;;;;0.63;0.63;;;-3.30;99.90;;;;;;5030732;28;20198;-76
2023/03/16 07:25:26;;;;;;;1.23;1.15;;;-3.10;99.90;;;;;;5016240;28;20569;-76
2023/03/16 07:27:54;;;;;;;0.70;0.70;;;-2.90;99.90;;;;;;5032431;28;20677;-75
2023/03/16 07:30:26;;;;;;;0.70;0.70;;;-2.70;99.90;;;;;;5032228;28;20201;-75
2023/03/16 07:32:55;;;;;;;1.02;1.02;;;-2.50;99.90;;;;;;5032726;28;20193;-76
2023/03/16 07:35:21;;;;;;;0.80;0.80;;;-2.30;99.90;;;;;;5031175;28;20209;-75
2023/03/16 07:37:50;;;;;;;0.60;0.60;;;-2.10;99.90;;;;;;5031304;28;20673;-76
2023/03/16 07:40:19;;;;;;;0.70;0.70;;;-1.90;99.90;;;;;;5032705;28;20198;-75
2023/03/16 07:42:48;;;;;;;0.50;0.50;;;-1.70;99.90;;;;;;5031006;28;20676;-77
2023/03/16 07:45:26;;;;;;;0.70;0.70;;;-1.50;99.90;;;;;;5032007;28;20679;-76
2023/03/16 07:47:51;;;;;;;0.60;0.60;;;-1.30;99.90;;;;;;5036356;28;20309;-76
2023/03/16 07:50:21;;;;;;;0.52;0.52;;;-1.10;99.90;;;;;;5036618;28;20273;-76
2023/03/16 07:52:46;;;;;;;0.60;0.60;;;-0.90;99.90;;;;;;5036608;28;20198;-77
2023/03/16 07:55:18;;;;;;;0.60;0.60;;;-0.80;99.90;;;;;;5035086;28;20260;-77
2023/03/16 07:57:47;;;;;;;0.80;0.80;;;-0.60;99.90;;;;;;5036756;28;20252;-77
2023/03/16 08:00:13;;;;;;;0.65;0.65;;;-0.30;99.90;;;;;;5037516;28;20217;-77
2023/03/16 08:02:47;;;;;;;0.77;0.77;;;-0.10;99.90;;;;;;5037096;28;20296;-77
2023/03/16 08:05:14;;;;;;;0.70;0.70;;;0.20;99.90;;;;;;5046680;28;20265;-77
2023/03/16 08:07:40;;;;;;;0.90;0.90;;;0.50;99.90;;;;;;5056292;28;20228;-77
2023/03/16 08:10:10;;;;;;;0.60;0.60;;;0.70;99.90;;;;;;5055722;28;20209;-77
2023/03/16 08:12:39;;;;;;;0.95;0.95;;;1.00;99.90;;;;;;5054776;28;20323;-77
2023/03/16 08:15:08;;;;;;;0.60;0.60;;;1.20;99.90;;;;;;5054688;28;20209;-77
2023/03/16 08:17:34;;;;;;;0.70;0.70;;;1.40;99.90;;;;;;5056019;28;20641;-78
2023/03/16 08:20:09;;;;;;;0.50;0.50;;;1.60;99.90;;;;;;5054962;28;20236;-76
2023/03/16 08:22:35;;;;;;;1.50;1.10;;;1.90;99.90;;;;;;5054683;28;20573;-78
2023/03/16 08:25:02;;;;;;;0.50;0.50;;;2.00;99.90;;;;;;5054561;28;20255;-77
2023/03/16 08:27:28;;;;;;;0.52;0.52;;;2.00;99.90;;;;;;5054661;28;20212;-78
2023/03/16 08:29:54;;;;;;;1.38;1.27;;;2.00;99.90;;;;;;5055916;28;20193;-78
2023/03/16 08:32:20;;;;;;;0.75;0.75;;;2.30;99.90;;;;;;5054552;28;20205;-77
2023/03/16 08:34:46;;;;;;;0.50;0.50;;;2.30;99.90;;;;;;5055034;28;20209;-78
2023/03/16 08:37:13;;;;;;;0.60;0.60;;;2.50;99.90;;;;;;5054847;28;20362;-78
2023/03/16 08:39:44;;;;;;;0.60;0.60;;;2.80;99.90;;;;;;5055976;28;20284;-78
2023/03/16 08:42:15;;;;;;;0.60;0.60;;;3.00;99.90;;;;;;5056046;28;20251;-76
2023/03/16 08:44:41;;;;;;;13.30;2.67;;;3.30;99.90;;;;;;5055885;28;20204;-77
2023/03/16 08:47:13;;;;;;;0.60;0.60;;;3.60;99.90;;;;;;5054868;28;20198;-78
2023/03/16 08:49:40;;;;;;;0.60;0.60;;;3.60;99.90;;;;;;5054866;28;20672;-78
2023/03/16 08:52:09;;;;;;;0.60;0.60;;;3.70;99.90;;;;;;5054972;28;20574;-78
2023/03/16 08:54:35;;;;;;;0.60;0.60;;;3.90;99.90;;;;;;5054152;28;20204;-77
2023/03/16 08:57:01;;;;;;;0.70;0.70;;;4.10;99.90;;;;;;5054738;28;20189;-78
2023/03/16 08:59:27;;;;;;;0.65;0.65;;;4.30;99.90;;;;;;5055514;28;20186;-78
2023/03/16 09:01:53;;;;;;;0.52;0.52;;;4.40;99.90;;;;;;5054293;28;20197;-78
2023/03/16 09:04:20;;;;;;;0.90;0.90;;;4.40;99.90;;;;;;5057305;28;20221;-78
2023/03/16 09:06:47;;;;;;;0.70;0.70;;;4.70;99.90;;;;;;5057611;28;20217;-77
2023/03/16 09:09:16;;;;;;;0.63;0.63;;;4.80;99.90;;;;;;5075878;28;20659;-79
2023/03/16 09:11:46;;;;;;;0.70;0.70;;;5.00;99.90;;;;;;5058034;28;20690;-79
2023/03/16 09:14:15;;;;;;;0.70;0.70;;;5.20;99.90;;;;;;5056868;28;20705;-74
2023/03/16 09:16:44;;;;;;;0.70;0.70;;;5.40;99.90;;;;;;5075718;28;20200;-80
2023/03/16 09:19:16;;;;;;;0.60;0.60;;;5.70;99.90;;;;;;5076701;28;20185;-82
2023/03/16 09:21:42;;;;;;;1.20;1.13;;;6.00;99.90;;;;;;5058902;28;20207;-81
2023/03/16 09:24:08;;;;;;;0.70;0.70;;;6.40;99.90;;;;;;5075117;28;20287;-77
2023/03/16 09:26:35;;;;;;;0.70;0.70;;;6.50;99.90;;;;;;5056246;28;20674;-77
2023/03/16 09:29:01;;;;;;;0.60;0.60;;;6.50;99.90;;;;;;5074150;28;20204;-75
2023/03/16 09:31:26;;;;;;;0.70;0.70;;;6.40;99.90;;;;;;5073918;28;20304;-73
2023/03/16 09:33:53;;;;;;;0.70;0.70;;;6.50;99.90;;;;;;5055809;28;20225;-74
2023/03/16 09:36:26;;;;;;;0.70;0.70;;;6.50;99.90;;;;;;5073941;28;20189;-74
2023/03/16 09:38:52;;;;;;;0.60;0.60;;;6.80;99.90;;;;;;5073722;28;20194;-75
2023/03/16 09:41:53;;;;;;;4.15;1.30;;;7.30;99.90;;;;;;5055644;28;20207;-75
2023/03/16 09:44:46;;;;;;;0.70;0.70;;;7.40;99.10;;;;;;5055916;28;20223;-76
2023/03/16 09:47:15;;;;;;;0.70;0.70;;;7.40;99.90;;;;;;5055471;28;20200;-75
2023/03/16 09:49:48;;;;;;;0.90;0.90;;;7.50;99.90;;;;;;5073375;28;20193;-75
2023/03/16 09:52:33;;;;;;;0.60;0.60;;;7.90;99.90;;;;;;5055604;28;20222;-75
2023/03/16 09:55:27;;;;;;;0.60;0.60;;;8.10;99.90;;;;;;5073186;28;20208;-75
2023/03/16 09:57:54;;;;;;;2.00;1.23;;;8.50;99.20;;;;;;5019796;28;20733;-74
2023/03/16 10:00:26;;;;;;;0.52;0.52;;;8.80;99.70;;;;;;5055190;28;20230;-75
2023/03/16 10:03:00;;;;;;;0.80;0.80;;;9.10;96.50;;;;;;5073206;28;20602;-75
2023/03/16 10:05:27;;;;;;;0.50;0.50;;;8.90;97.00;;;;;;5072716;28;20718;-75
2023/03/16 10:08:15;;;;;;;1.20;1.13;;;9.10;95.20;;;;;;5054771;28;20201;-75
2023/03/16 10:10:54;;;;;;;1.33;1.23;;;9.50;94.90;;;;;;5072825;28;20660;-75
2023/03/16 10:13:56;;;;;;;0.68;0.68;;;9.70;89.90;;;;;;5054970;28;20219;-74
2023/03/16 10:16:55;;;;;;;0.60;0.60;;;9.40;93.70;;;;;;5054505;28;20747;-73
2023/03/16 10:19:36;;;;;;;0.60;0.60;;;9.30;91.10;;;;;;5022190;28;20207;-74
2023/03/16 10:22:27;;;;;;;0.50;0.50;;;9.60;92.20;;;;;;5073181;28;20712;-75
2023/03/16 10:25:30;;;;;;;0.60;0.60;;;9.50;91.60;;;;;;5072878;28;20197;-73
2023/03/16 10:27:59;;;;;;;0.55;0.55;;;9.60;91.40;;;;;;5072831;28;20694;-75
2023/03/16 10:30:24;;;;;;;0.60;0.60;;;10.00;89.10;;;;;;5072608;28;20197;-74
2023/03/16 10:33:12;;;;;;;0.70;0.70;;;10.10;85.90;;;;;;5054890;28;20199;-75
2023/03/16 10:35:52;;;;;;;0.60;0.60;;;9.70;85.80;;;;;;5054774;28;20667;-75
2023/03/16 10:38:39;;;;;;;0.50;0.50;;;10.00;84.10;;;;;;5072596;28;20185;-74
2023/03/16 10:41:44;;;;;;;0.50;0.50;;;10.10;82.10;;;;;;5054387;28;20230;-73
2023/03/16 10:44:27;;;;;;;0.50;0.50;;;10.10;86.00;;;;;;5069592;28;20568;-75
2023/03/16 10:47:07;;;;;;;0.43;0.43;;;10.00;77.30;;;;;;5054505;28;20245;-75
2023/03/16 10:50:13;;;;;;;0.57;0.57;;;10.30;79.60;;;;;;5054798;28;20588;-75
2023/03/16 10:52:48;;;;;;;1.95;1.13;;;9.40;79.50;;;;;;5072191;28;20572;-75
2023/03/16 10:55:39;;;;;;;0.60;0.60;;;9.10;79.80;;;;;;5072431;28;20196;-75
2023/03/16 10:58:21;;;;;;;0.82;0.82;;;9.60;76.60;;;;;;5072470;28;20199;-75
2023/03/16 11:00:47;;;;;;;0.60;0.60;;;9.70;77.60;;;;;;5072384;28;20197;-75
2023/03/16 11:03:24;;;;;;;0.60;0.60;;;9.50;83.00;;;;;;5072334;28;21027;-75
2023/03/16 11:05:59;;;;;;;0.50;0.50;;;9.70;80.50;;;;;;5071735;28;20253;-74
2023/03/16 11:08:29;;;;;;;1.33;1.23;;;9.90;80.10;;;;;;5054395;28;20193;-75
2023/03/16 11:11:26;;;;;;;0.60;0.60;;;10.30;79.00;;;;;;5054012;28;20204;-75
2023/03/16 11:14:14;;;;;;;0.57;0.57;;;10.30;74.30;;;;;;5072266;28;20215;-75
2023/03/16 11:16:50;;;;;;;0.70;0.70;;;9.30;77.30;;;;;;5072183;28;20520;-74
2023/03/16 11:19:33;;;;;;;0.60;0.60;;;9.30;80.30;;;;;;5054258;28;20663;-75
2023/03/16 11:21:59;;;;;;;2.50;1.25;;;9.30;84.50;;;;;;5076099;28;20193;-75
2023/03/16 11:25:01;;;;;;;0.50;0.50;;;9.10;78.50;;;;;;5075896;28;20208;-74
2023/03/16 11:27:52;;;;;;;0.60;0.60;;;9.20;82.50;;;;;;5058423;28;20682;-74
2023/03/16 11:30:39;;;;;;;0.60;0.60;;;8.80;84.10;;;;;;5076153;28;20211;-75
2023/03/16 11:33:09;;;;;;;0.60;0.60;;;9.30;80.20;;;;;;5076318;28;20200;-75
2023/03/16 11:35:44;;;;;;;0.50;0.50;;;9.60;76.60;;;;;;5058061;28;20204;-75
2023/03/16 11:38:32;;;;;;;0.60;0.60;;;9.50;78.40;;;;;;5057568;28;20566;-74
2023/03/16 11:41:27;;;;;;;0.60;0.60;;;9.40;78.40;;;;;;5057776;28;20197;-73
2023/03/16 11:43:58;;;;;;;0.60;0.60;;;9.10;75.40;;;;;;5057967;28;20208;-74
2023/03/16 11:46:51;;;;;;;3.83;1.95;;;9.00;79.60;;;;;;5075862;28;20238;-74
2023/03/16 11:49:59;;;;;;;0.98;0.98;;;9.20;80.50;;;;;;5075829;28;20280;-75
2023/03/16 11:52:50;;;;;;;0.60;0.60;;;8.90;77.50;;;;;;5057634;28;20275;-74
2023/03/16 11:55:25;;;;;;;0.60;0.60;;;8.80;77.30;;;;;;5075743;28;20192;-73
2023/03/16 11:58:27;;;;;;;0.90;0.90;;;8.10;77.40;;;;;;5075575;28;20188;-74
2023/03/16 12:01:42;;;;;;;0.60;0.60;;;8.10;78.80;;;;;;5075567;28;20563;-73
2023/03/16 12:04:20;;;;;;;0.70;0.70;;;7.80;77.60;;;;;;4955494;29;20222;-72
2023/03/16 12:07:20;;;;;;;0.60;0.60;;;7.90;78.60;;;;;;4957952;28;20270;-75
2023/03/16 12:10:22;;;;;;;0.70;0.70;;;7.90;79.10;;;;;;4974938;28;20263;-76
2023/03/16 12:13:02;;;;;;;0.60;0.60;;;8.10;82.00;;;;;;4958202;28;20582;-76
2023/03/16 12:15:46;;;;;;;0.70;0.70;;;8.00;81.00;;;;;;4974325;28;20244;-76
2023/03/16 12:19:05;;;;;;;0.60;0.60;;;7.40;84.10;;;;;;4958368;28;20660;-76
2023/03/16 12:21:37;;;;;;;0.70;0.70;;;7.40;86.40;;;;;;4884794;29;20290;-76
2023/03/16 12:24:27;;;;;;;0.60;0.60;;;7.40;84.70;;;;;;4898471;29;20207;-76
2023/03/16 12:26:58;;;;;;;0.63;0.63;;;7.50;85.10;;;;;;4928981;28;20212;-76
2023/03/16 12:30:11;;;;;;;1.15;1.15;;;7.20;83.40;;;;;;4975045;28;20728;-77
2023/03/16 12:32:42;;;;;;;0.70;0.70;;;6.90;83.90;;;;;;4935797;29;20232;-76
2023/03/16 12:35:38;;;;;;;0.70;0.70;;;7.00;83.80;;;;;;4973752;28;20718;-76
2023/03/16 12:38:37;;;;;;;0.63;0.63;;;6.80;81.90;;;;;;4974655;28;20598;-75
2023/03/16 12:41:47;;;;;;;0.70;0.70;;;6.50;81.00;;;;;;5031370;28;20201;-77
2023/03/16 12:44:31;;;;;;;0.70;0.70;;;6.40;85.80;;;;;;5052777;28;20216;-75
2023/03/16 12:47:36;;;;;;;0.63;0.63;;;6.70;86.40;;;;;;5055153;28;20208;-76
2023/03/16 12:50:14;;;;;;;0.60;0.60;;;6.60;82.40;;;;;;5005673;28;20209;-76
2023/03/16 12:52:49;;;;;;;1.70;1.60;;;6.60;87.60;;;;;;5055265;28;20201;-75
2023/03/16 12:55:26;;;;;;;0.80;0.80;;;6.50;84.10;;;;;;5055653;28;20200;-76
2023/03/16 12:58:05;;;;;;;0.60;0.60;;;6.50;81.90;;;;;;5055229;28;20224;-76
2023/03/16 13:00:55;;;;;;;0.70;0.70;;;6.30;88.80;;;;;;5055094;28;20193;-76
2023/03/16 13:03:28;;;;;;;0.70;0.70;;;6.40;85.50;;;;;;5053720;28;20288;-75
2023/03/16 13:05:59;;;;;;;0.70;0.70;;;6.20;83.70;;;;;;5052204;28;20252;-75
2023/03/16 13:08:27;;;;;;;0.60;0.60;;;6.20;84.50;;;;;;5053549;28;20197;-76
2023/03/16 13:11:06;;;;;;;0.70;0.70;;;6.40;84.50;;;;;;5054183;28;20205;-76
2023/03/16 13:13:35;;;;;;;23.98;1.48;;;6.40;87.00;;;;;;5053509;28;20296;-76
2023/03/16 13:16:50;;;;;;;0.70;0.70;;;6.60;88.00;;;;;;5055088;28;20244;-76
2023/03/16 13:19:23;;;;;;;0.50;0.50;;;6.90;85.50;;;;;;5053938;28;20205;-76
2023/03/16 13:22:03;;;;;;;0.60;0.60;;;6.70;85.50;;;;;;5053401;28;20200;-77
2023/03/16 13:24:49;;;;;;;0.60;0.60;;;6.60;83.80;;;;;;5054406;28;20209;-76